Time;durP1;ratioP1;P1;durP2;ratioP2;P2;SDS_P1;SDS_P2;PMS_P1;PMS_P2;Temp;Humidity;BMP_temperature;BMP_pressure;BME280_temperature;BME280_humidity;BME280_pressure;Samples;Min_cycle;Max_cycle;Signal;HPM_P1;HPM_P2
2022/07/23 00:00:11;;;;;;;10.17;2.60;;;;;;;20.28;55.33;101314.81;4946552;28;120178;-79
2022/07/23 00:02:37;;;;;;;8.95;2.42;;;;;;;20.30;55.15;101324.19;4944369;28;120311;-79
2022/07/23 00:05:03;;;;;;;11.07;2.75;;;;;;;20.28;55.32;101312.81;4943457;28;120531;-79
2022/07/23 00:07:29;;;;;;;6.82;2.50;;;;;;;20.29;54.84;101305.19;4948971;28;120133;-79
2022/07/23 00:09:54;;;;;;;7.28;2.50;;;;;;;20.32;54.74;101302.16;4943933;28;119747;-80
2022/07/23 00:12:20;;;;;;;8.15;2.58;;;;;;;20.33;54.86;101306.47;4945316;28;120750;-79
2022/07/23 00:14:46;;;;;;;8.63;2.10;;;;;;;20.28;54.86;101309.25;4927093;28;123360;-79
2022/07/23 00:17:11;;;;;;;10.57;2.60;;;;;;;20.27;55.21;101310.53;4928061;28;120129;-79
2022/07/23 00:19:37;;;;;;;9.27;2.40;;;;;;;20.30;54.56;101303.94;4927684;28;121440;-79
2022/07/23 00:22:03;;;;;;;9.07;2.40;;;;;;;20.28;55.08;101317.63;4927466;28;120790;-79
2022/07/23 00:24:28;;;;;;;8.63;2.43;;;;;;;20.25;54.61;101311.03;4943235;28;120340;-79
2022/07/23 00:26:54;;;;;;;7.97;2.20;;;;;;;20.28;54.65;101317.63;4924261;28;122301;-78
2022/07/23 00:29:20;;;;;;;8.17;2.20;;;;;;;20.23;54.33;101311.53;4928495;28;120276;-79
2022/07/23 00:31:45;;;;;;;7.38;2.28;;;;;;;20.28;54.84;101318.38;4925264;28;120576;-79
2022/07/23 00:34:11;;;;;;;7.22;2.45;;;;;;;20.26;54.70;101315.34;4926382;28;120652;-79
2022/07/23 00:36:37;;;;;;;9.07;2.40;;;;;;;20.24;54.25;101313.06;4927220;28;120065;-80
2022/07/23 00:39:02;;;;;;;7.25;2.10;;;;;;;20.26;53.81;101309.00;4941104;28;120885;-79
2022/07/23 00:41:28;;;;;;;7.10;2.10;;;;;;;20.19;53.56;101313.81;4941495;28;121381;-79
2022/07/23 00:43:54;;;;;;;7.33;2.13;;;;;;;20.25;54.82;101313.81;4926198;28;120169;-80
2022/07/23 00:46:21;;;;;;;6.25;2.20;;;;;;;20.27;54.34;101311.28;4926056;28;122092;-80
2022/07/23 00:48:47;;;;;;;7.53;2.35;;;;;;;20.27;54.08;101310.53;4929864;28;124133;-79
2022/07/23 00:51:16;;;;;;;6.28;2.20;;;;;;;20.20;54.04;101290.25;4944979;28;119942;-79
2022/07/23 00:53:42;;;;;;;7.97;2.10;;;;;;;20.23;53.77;101294.81;4942499;28;120081;-80
2022/07/23 00:56:08;;;;;;;7.25;2.10;;;;;;;20.18;53.75;101297.59;4909275;28;119937;-79
2022/07/23 00:58:35;;;;;;;7.18;2.22;;;;;;;20.16;54.01;101288.97;4927052;28;120313;-80
2022/07/23 01:01:01;;;;;;;6.88;2.20;;;;;;;20.13;53.98;101290.75;4926790;28;123807;-80
2022/07/23 01:03:26;;;;;;;6.97;1.98;;;;;;;20.18;53.50;101297.59;4925197;28;120119;-79
2022/07/23 01:06:00;;;;;;;8.75;2.05;;;;;;;20.16;53.90;101294.56;4943608;28;120177;-79
2022/07/23 01:08:27;;;;;;;5.63;2.30;;;;;;;20.19;53.56;101293.53;4942578;28;120908;-79
2022/07/23 01:10:53;;;;;;;8.13;2.03;;;;;;;20.15;53.70;101290.25;4945648;28;120376;-79
2022/07/23 01:13:22;;;;;;;6.53;2.10;;;;;;;20.15;53.73;101285.44;4926682;28;121331;-79
2022/07/23 01:15:47;;;;;;;6.32;2.20;;;;;;;20.11;53.77;101282.13;4943303;28;121751;-79
2022/07/23 01:18:13;;;;;;;6.43;2.03;;;;;;;20.12;54.30;101286.44;4927859;28;121764;-80
2022/07/23 01:20:39;;;;;;;6.88;2.15;;;;;;;20.10;54.02;101291.72;4929779;28;123330;-79
2022/07/23 01:23:06;;;;;;;6.23;2.00;;;;;;;20.14;54.17;101292.28;4930648;28;120047;-79
2022/07/23 01:25:33;;;;;;;7.80;2.03;;;;;;;20.16;53.57;101291.78;4947308;28;120774;-79
2022/07/23 01:28:01;;;;;;;7.03;2.08;;;;;;;20.11;53.50;101281.34;4946105;28;121324;-80
2022/07/23 01:30:27;;;;;;;8.02;2.35;;;;;;;20.13;53.88;101284.41;4929144;28;121163;-79
2022/07/23 01:32:54;;;;;;;8.43;2.03;;;;;;;20.18;53.87;101289.25;4934189;28;121760;-80
2022/07/23 01:35:20;;;;;;;7.25;2.08;;;;;;;20.10;54.18;101266.66;4930172;28;120007;-79
2022/07/23 01:37:47;;;;;;;6.60;2.05;;;;;;;20.21;53.65;101283.41;4929981;28;121894;-80
2022/07/23 01:40:12;;;;;;;9.17;2.40;;;;;;;20.24;53.93;101284.44;4940367;28;122991;-80
2022/07/23 01:42:38;;;;;;;8.10;2.17;;;;;;;20.22;53.69;101284.94;4947710;28;121108;-79
2022/07/23 01:45:05;;;;;;;6.47;2.00;;;;;;;20.20;53.92;101267.97;4928526;28;122365;-80
2022/07/23 01:47:32;;;;;;;7.82;2.22;;;;;;;20.22;54.24;101268.22;4945546;28;120700;-80
2022/07/23 01:49:58;;;;;;;5.30;1.93;;;;;;;20.20;54.09;101273.53;4931349;28;121040;-80
2022/07/23 01:52:43;;;;;;;7.65;2.58;;;;;;;20.20;53.93;101276.31;4947538;28;119984;-80
2022/07/23 01:55:09;;;;;;;6.30;2.17;;;;;;;20.17;54.21;101266.19;4929735;28;122738;-80
2022/07/23 01:57:38;;;;;;;6.53;2.08;;;;;;;20.15;53.99;101260.38;4930270;28;121307;-80
2022/07/23 02:00:05;;;;;;;7.05;2.00;;;;;;;20.07;54.04;101253.75;4931012;28;123658;-80
2022/07/23 02:02:39;;;;;;;6.68;2.00;;;;;;;20.14;54.39;101267.22;4947635;28;120407;-80
2022/07/23 02:05:05;;;;;;;6.88;2.20;;;;;;;20.13;54.20;101262.13;4932507;28;120288;-80
2022/07/23 02:07:39;;;;;;;9.23;2.33;;;;;;;20.14;54.28;101270.00;4946018;28;120229;-80
2022/07/23 02:10:05;;;;;;;6.90;2.10;;;;;;;20.14;54.03;101264.41;4927889;28;120609;-80
2022/07/23 02:12:31;;;;;;;7.55;2.22;;;;;;;20.14;53.91;101258.09;4945987;28;120240;-80
2022/07/23 02:14:56;;;;;;;6.70;2.15;;;;;;;20.16;54.16;101266.69;4929284;28;122609;-80
2022/07/23 02:17:24;;;;;;;6.50;2.30;;;;;;;20.12;54.27;101261.38;4917973;28;120128;-80
2022/07/23 02:19:50;;;;;;;8.00;2.30;;;;;;;20.16;53.98;101275.06;4929069;28;122860;-80
2022/07/23 02:22:15;;;;;;;7.67;1.93;;;;;;;20.06;54.22;101259.81;4930414;28;119971;-80
2022/07/23 02:25:02;;;;;;;7.55;2.15;;;;;;;20.10;54.34;101269.44;4929840;28;120405;-80
2022/07/23 02:27:28;;;;;;;7.55;2.10;;;;;;;20.13;54.26;101273.28;4946260;28;119997;-80
2022/07/23 02:29:54;;;;;;;7.15;2.40;;;;;;;20.11;54.58;101276.56;4927646;28;120785;-80
2022/07/23 02:32:21;;;;;;;6.83;2.00;;;;;;;20.10;54.57;101275.03;4944130;28;120164;-80
2022/07/23 02:34:47;;;;;;;6.03;2.10;;;;;;;20.11;54.57;101264.63;4943766;28;121268;-80
2022/07/23 02:37:13;;;;;;;7.60;2.08;;;;;;;20.12;54.53;101266.94;4932188;28;121286;-81
2022/07/23 02:39:39;;;;;;;6.43;1.97;;;;;;;20.08;54.36;101266.41;4925692;28;122798;-79
2022/07/23 02:42:05;;;;;;;7.60;2.17;;;;;;;20.13;54.84;101271.25;4947442;28;120185;-79
2022/07/23 02:44:32;;;;;;;6.63;2.07;;;;;;;20.10;54.68;101263.88;4930116;28;120217;-79
2022/07/23 02:46:58;;;;;;;6.67;2.00;;;;;;;20.13;54.42;101260.13;4912906;28;122860;-80
2022/07/23 02:49:24;;;;;;;9.15;2.30;;;;;;;20.13;54.67;101265.69;4946037;28;120012;-79
2022/07/23 02:51:50;;;;;;;6.65;2.03;;;;;;;20.11;54.58;101254.28;4915154;28;120487;-80
2022/07/23 02:54:17;;;;;;;6.47;2.40;;;;;;;20.10;54.55;101261.09;4946634;28;120119;-79
2022/07/23 02:56:42;;;;;;;7.38;1.95;;;;;;;20.09;54.75;101251.22;4929761;28;120967;-80
2022/07/23 02:59:08;;;;;;;6.53;2.10;;;;;;;20.09;54.36;101262.38;4932127;28;122566;-79
2022/07/23 03:01:34;;;;;;;9.30;2.10;;;;;;;20.06;54.29;101248.69;4914168;28;120129;-80
2022/07/23 03:04:00;;;;;;;7.85;2.35;;;;;;;20.02;54.88;101246.16;4929331;28;122152;-80
2022/07/23 03:06:26;;;;;;;6.47;2.08;;;;;;;20.05;54.88;101247.16;4944739;28;121022;-80
2022/07/23 03:08:51;;;;;;;8.15;2.08;;;;;;;20.07;54.61;101259.31;4929674;28;119943;-80
2022/07/23 03:11:17;;;;;;;7.70;2.10;;;;;;;19.99;54.61;101255.50;4911835;28;122050;-80
2022/07/23 03:13:43;;;;;;;7.67;2.20;;;;;;;20.03;54.72;101253.25;4929844;28;120206;-79
2022/07/23 03:16:09;;;;;;;6.35;2.15;;;;;;;20.02;54.57;101246.16;4945602;28;120167;-81
2022/07/23 03:18:36;;;;;;;6.60;2.00;;;;;;;20.05;54.78;101247.94;4929543;28;122420;-81
2022/07/23 03:21:04;;;;;;;7.37;1.90;;;;;;;20.05;54.92;101242.34;4948525;28;121548;-82
2022/07/23 03:23:30;;;;;;;5.97;1.90;;;;;;;20.06;55.08;101246.66;4930036;28;121140;-81
2022/07/23 03:25:56;;;;;;;5.80;1.80;;;;;;;20.07;54.98;101253.00;4912611;28;123691;-81
2022/07/23 03:28:22;;;;;;;7.00;2.20;;;;;;;20.04;55.00;101238.06;4929540;28;119649;-81
2022/07/23 03:31:08;;;;;;;5.87;1.90;;;;;;;20.08;54.73;101238.56;4946164;28;120719;-81
2022/07/23 03:33:34;;;;;;;7.00;2.10;;;;;;;20.08;54.96;101243.38;4945372;28;120863;-81
2022/07/23 03:35:59;;;;;;;6.73;2.13;;;;;;;20.08;54.88;101243.38;4936911;28;121300;-81
2022/07/23 03:38:28;;;;;;;6.45;2.00;;;;;;;20.08;55.04;101248.94;4929044;28;120266;-81
2022/07/23 03:40:54;;;;;;;7.32;1.95;;;;;;;20.03;54.73;101242.09;4925048;28;122864;-81
2022/07/23 03:43:20;;;;;;;8.70;1.92;;;;;;;20.03;54.71;101228.19;4947300;28;122309;-81
2022/07/23 03:45:46;;;;;;;8.30;2.10;;;;;;;20.08;54.99;101232.22;4944959;28;120258;-81
2022/07/23 03:48:11;;;;;;;6.77;2.13;;;;;;;20.09;54.81;101248.44;4945677;28;119891;-81
2022/07/23 03:50:37;;;;;;;7.17;1.97;;;;;;;20.09;54.99;101242.09;4943931;28;121513;-81
2022/07/23 03:53:03;;;;;;;7.15;1.80;;;;;;;20.06;54.63;101238.31;4944938;28;120311;-81
2022/07/23 03:55:31;;;;;;;6.72;1.92;;;;;;;20.05;54.93;101236.78;4942480;28;121604;-81
2022/07/23 03:58:06;;;;;;;6.13;1.90;;;;;;;20.08;55.40;101235.78;4913780;28;122868;-81
2022/07/23 04:00:32;;;;;;;5.33;1.90;;;;;;;20.04;54.73;101232.47;4943905;28;120314;-81
2022/07/23 04:02:57;;;;;;;5.47;1.70;;;;;;;20.06;55.28;101234.75;4929433;28;119926;-81
2022/07/23 04:05:23;;;;;;;6.40;2.10;;;;;;;20.09;54.77;101239.31;4933156;28;121759;-81
2022/07/23 04:07:53;;;;;;;7.63;2.20;;;;;;;20.14;54.88;101244.16;4929336;28;120220;-81
2022/07/23 04:10:19;;;;;;;6.77;1.90;;;;;;;20.07;54.68;101245.41;4943130;28;121687;-81
2022/07/23 04:12:46;;;;;;;6.93;2.10;;;;;;;20.13;54.10;101251.75;4928544;28;123071;-81
2022/07/23 04:15:11;;;;;;;5.43;1.70;;;;;;;20.13;54.74;101251.75;4928282;28;119761;-81
2022/07/23 04:17:37;;;;;;;5.32;1.90;;;;;;;20.15;55.21;101248.47;4944466;28;121589;-81
2022/07/23 04:20:03;;;;;;;6.68;1.77;;;;;;;20.18;55.46;101247.47;4945573;28;120050;-81
2022/07/23 04:22:34;;;;;;;6.53;1.80;;;;;;;20.17;55.14;101246.69;4947495;28;120001;-81
2022/07/23 04:24:59;;;;;;;6.23;1.90;;;;;;;20.12;54.96;101243.91;4931063;28;119831;-80
2022/07/23 04:27:25;;;;;;;6.50;2.10;;;;;;;20.11;55.15;101236.78;4926427;28;120794;-82
2022/07/23 04:29:53;;;;;;;5.68;1.90;;;;;;;20.10;55.37;101241.59;4945734;28;119546;-81
2022/07/23 04:32:19;;;;;;;6.17;1.80;;;;;;;20.07;55.06;101248.19;4946158;28;120830;-81
2022/07/23 04:34:45;;;;;;;10.47;1.97;;;;;;;20.13;54.83;101245.44;4928563;28;120341;-80
2022/07/23 04:37:10;;;;;;;5.37;1.77;;;;;;;20.06;54.88;101229.19;4930574;28;122572;-81
2022/07/23 04:39:36;;;;;;;7.40;2.13;;;;;;;20.11;55.13;101237.59;4930312;28;120614;-81
2022/07/23 04:42:02;;;;;;;5.65;2.10;;;;;;;20.11;55.31;101242.38;4925918;28;120308;-81
2022/07/23 04:44:29;;;;;;;6.45;2.08;;;;;;;20.13;55.17;101237.84;4927787;28;120710;-81
2022/07/23 04:46:55;;;;;;;6.65;2.00;;;;;;;20.18;54.99;101241.88;4914650;28;123100;-81
2022/07/23 04:49:23;;;;;;;6.10;1.90;;;;;;;20.20;55.43;101234.53;4932506;28;119763;-81
2022/07/23 04:51:48;;;;;;;5.97;1.95;;;;;;;20.24;55.20;101234.28;4946667;28;119983;-81
2022/07/23 04:54:25;;;;;;;6.63;2.20;;;;;;;20.27;55.06;101229.75;4940288;28;120485;-81
2022/07/23 04:56:50;;;;;;;6.97;2.10;;;;;;;20.30;55.55;101228.72;4947149;28;119639;-81
2022/07/23 04:59:16;;;;;;;6.17;1.90;;;;;;;20.31;55.50;101231.00;4914261;28;123076;-81
2022/07/23 05:01:43;;;;;;;6.68;2.13;;;;;;;20.37;55.39;101231.78;4931897;28;120058;-81
2022/07/23 05:04:10;;;;;;;9.15;2.17;;;;;;;20.41;54.50;101228.78;4943861;28;120031;-81
2022/07/23 05:06:36;;;;;;;5.93;1.92;;;;;;;20.43;55.02;101229.03;4911302;28;121638;-81
2022/07/23 05:09:02;;;;;;;7.93;2.20;;;;;;;20.49;54.62;101238.13;4918737;28;120084;-81
2022/07/23 05:11:29;;;;;;;7.00;1.98;;;;;;;20.49;54.74;101232.56;4941904;28;120251;-81
2022/07/23 05:13:55;;;;;;;8.03;2.00;;;;;;;20.58;55.16;101240.66;4912103;28;120147;-81
2022/07/23 05:16:21;;;;;;;7.38;2.10;;;;;;;20.60;54.96;101245.75;4927537;28;120148;-81
2022/07/23 05:18:47;;;;;;;6.47;1.93;;;;;;;20.62;55.35;101238.41;4911293;28;122166;-81
2022/07/23 05:21:13;;;;;;;5.70;1.90;;;;;;;20.60;54.33;101240.19;4944708;28;120257;-81
2022/07/23 05:23:39;;;;;;;7.07;1.80;;;;;;;20.60;54.54;101243.72;4919898;28;122194;-81
2022/07/23 05:26:07;;;;;;;6.20;1.80;;;;;;;20.56;54.94;101240.41;4910495;28;122791;-81
2022/07/23 05:28:34;;;;;;;6.13;1.60;;;;;;;20.58;55.26;101234.34;4931240;28;120157;-81
2022/07/23 05:30:59;;;;;;;5.13;1.80;;;;;;;20.67;54.61;101242.47;4945945;28;119834;-80
2022/07/23 05:33:25;;;;;;;8.98;1.67;;;;;;;20.70;54.89;101245.00;4912013;28;120247;-81
2022/07/23 05:35:51;;;;;;;6.15;1.95;;;;;;;20.75;54.91;101244.22;4927327;28;120037;-81
2022/07/23 05:38:26;;;;;;;4.13;1.70;;;;;;;20.82;54.65;101249.31;4912981;28;120257;-81
2022/07/23 05:40:54;;;;;;;5.57;1.63;;;;;;;20.87;54.56;101253.34;4942987;28;119884;-81
2022/07/23 05:43:20;;;;;;;6.32;1.63;;;;;;;20.94;54.43;101247.25;4947450;28;120236;-81
2022/07/23 05:45:45;;;;;;;5.30;1.80;;;;;;;21.02;54.45;101258.63;4914014;28;123314;-81
2022/07/23 05:48:11;;;;;;;8.82;2.00;;;;;;;21.12;54.23;101259.91;4942634;28;120007;-82
2022/07/23 05:50:47;;;;;;;7.55;1.73;;;;;;;21.19;53.76;101262.16;4942424;28;119792;-81
2022/07/23 05:53:22;;;;;;;5.40;1.70;;;;;;;21.21;53.81;101251.25;4943662;28;122427;-81
2022/07/23 05:55:58;;;;;;;4.57;1.60;;;;;;;21.27;54.23;101248.47;4914820;28;120721;-81
2022/07/23 05:58:23;;;;;;;6.75;1.70;;;;;;;21.29;53.92;101254.28;4926459;28;123301;-81
2022/07/23 06:00:49;;;;;;;6.13;1.90;;;;;;;21.39;52.68;101252.75;4939937;28;119884;-81
2022/07/23 06:03:15;;;;;;;6.43;1.90;;;;;;;21.34;53.09;101257.09;4931586;28;120492;-81
2022/07/23 06:05:41;;;;;;;7.63;2.00;;;;;;;21.28;53.10;101250.00;4932532;28;124117;-81
2022/07/23 06:08:07;;;;;;;5.90;1.67;;;;;;;21.22;53.45;101258.34;4933876;28;120157;-81
2022/07/23 06:10:34;;;;;;;6.60;1.90;;;;;;;21.17;53.93;101259.13;4933939;28;120169;-81
2022/07/23 06:13:00;;;;;;;4.95;1.80;;;;;;;21.09;54.28;101256.09;4931366;28;120357;-81
2022/07/23 06:15:30;;;;;;;6.75;1.70;;;;;;;20.99;54.22;101251.28;4934398;28;120340;-81
2022/07/23 06:17:55;;;;;;;5.18;1.77;;;;;;;20.91;54.66;101241.94;4932666;28;123189;-80
2022/07/23 06:20:22;;;;;;;6.80;1.80;;;;;;;20.91;54.43;101244.72;4932415;28;120202;-81
2022/07/23 06:22:47;;;;;;;7.10;1.83;;;;;;;20.81;54.55;101244.22;4932028;28;122845;-82
2022/07/23 06:25:13;;;;;;;5.07;2.00;;;;;;;20.82;54.62;101252.09;4929091;28;123710;-81
2022/07/23 06:27:39;;;;;;;7.73;1.90;;;;;;;20.80;55.12;101249.03;4923313;28;119917;-81
2022/07/23 06:30:06;;;;;;;5.95;2.03;;;;;;;20.84;55.43;101268.31;4916957;28;121652;-81
2022/07/23 06:32:31;;;;;;;6.38;1.73;;;;;;;20.75;55.02;101269.31;4949886;28;120144;-81
2022/07/23 06:34:58;;;;;;;6.53;1.63;;;;;;;20.68;55.60;101269.81;4933889;28;119867;-80
2022/07/23 06:37:24;;;;;;;4.37;1.50;;;;;;;20.62;55.10;101268.31;4931520;28;120174;-80
2022/07/23 06:39:50;;;;;;;5.90;1.73;;;;;;;20.56;55.61;101276.66;4949161;28;120495;-81
2022/07/23 06:42:15;;;;;;;5.70;1.83;;;;;;;20.47;56.30;101279.69;4912692;28;122308;-81
2022/07/23 06:44:45;;;;;;;6.82;1.80;;;;;;;20.34;56.24;101271.03;4923729;28;120469;-81
2022/07/23 06:47:10;;;;;;;4.85;1.60;;;;;;;20.27;57.24;101275.06;4913376;28;120067;-81
2022/07/23 06:49:36;;;;;;;6.03;2.37;;;;;;;20.29;57.57;101280.13;4931654;28;120231;-81
2022/07/23 06:52:02;;;;;;;6.53;2.00;;;;;;;20.32;56.61;101284.69;4944654;28;120163;-81
2022/07/23 06:54:27;;;;;;;5.77;1.90;;;;;;;20.30;56.66;101287.22;4949406;28;119847;-80
2022/07/23 06:56:53;;;;;;;4.53;1.63;;;;;;;20.24;56.67;101276.84;4935920;28;120595;-80
2022/07/23 06:59:18;;;;;;;4.40;1.63;;;;;;;20.33;56.55;101286.97;4913451;28;120473;-81
2022/07/23 07:01:44;;;;;;;5.43;1.70;;;;;;;20.35;56.79;101284.47;4911651;28;121020;-81
2022/07/23 07:04:10;;;;;;;4.93;1.80;;;;;;;20.38;56.69;101282.69;4913531;28;120672;-81
2022/07/23 07:06:35;;;;;;;5.33;1.70;;;;;;;20.37;56.37;101275.59;4929796;28;119840;-80
2022/07/23 07:09:01;;;;;;;5.07;1.57;;;;;;;20.43;55.95;101279.94;4929941;28;122256;-81
2022/07/23 07:11:27;;;;;;;5.73;1.63;;;;;;;20.47;56.15;101279.69;4943590;28;120240;-81
2022/07/23 07:13:55;;;;;;;5.30;1.80;;;;;;;20.50;55.98;101281.47;4946769;28;119853;-81
2022/07/23 07:16:21;;;;;;;5.65;1.80;;;;;;;20.54;55.94;101282.72;4948041;28;119635;-81
2022/07/23 07:18:48;;;;;;;5.95;1.73;;;;;;;20.56;55.58;101279.44;4921252;28;123368;-81
2022/07/23 07:21:14;;;;;;;6.83;2.20;;;;;;;20.67;55.69;101282.25;4914306;28;121658;-81
2022/07/23 07:23:40;;;;;;;5.60;1.77;;;;;;;20.70;55.71;101286.81;4921421;28;122353;-80
2022/07/23 07:26:05;;;;;;;7.53;1.73;;;;;;;20.80;55.13;101282.47;4948516;28;121910;-82
2022/07/23 07:28:31;;;;;;;6.27;1.67;;;;;;;20.82;54.87;101282.00;4928452;28;121849;-81
2022/07/23 07:30:57;;;;;;;7.60;1.85;;;;;;;20.77;54.28;101269.56;4923814;28;123178;-81
2022/07/23 07:33:22;;;;;;;5.38;1.70;;;;;;;20.76;54.87;101279.19;4948524;28;120568;-81
2022/07/23 07:35:50;;;;;;;6.60;1.80;;;;;;;20.72;54.66;101275.91;4947076;28;119606;-81
2022/07/23 07:38:16;;;;;;;6.00;1.75;;;;;;;20.75;55.24;101277.69;4949535;28;120322;-81
2022/07/23 07:40:42;;;;;;;6.32;2.10;;;;;;;20.71;55.27;101270.84;4949987;28;119936;-80
2022/07/23 07:43:07;;;;;;;6.45;1.70;;;;;;;20.78;54.76;101284.25;4948058;28;120186;-80
2022/07/23 07:45:33;;;;;;;5.93;1.90;;;;;;;20.77;54.69;101291.09;4940943;28;119993;-81
2022/07/23 07:47:59;;;;;;;6.53;2.20;;;;;;;20.79;55.35;101294.16;4912825;28;122478;-81
2022/07/23 07:50:25;;;;;;;6.50;2.00;;;;;;;20.80;54.80;101296.41;4944172;28;119992;-80
2022/07/23 07:52:50;;;;;;;8.48;2.17;;;;;;;20.83;54.77;101289.84;4944552;28;121324;-81
2022/07/23 07:55:16;;;;;;;5.80;1.60;;;;;;;20.87;54.93;101300.00;4943306;28;120677;-81
2022/07/23 07:57:41;;;;;;;6.30;1.97;;;;;;;20.87;54.03;101295.19;4944410;28;121049;-81
2022/07/23 08:00:09;;;;;;;6.63;1.90;;;;;;;20.92;54.26;101296.44;4943908;28;120527;-81
2022/07/23 08:02:46;;;;;;;5.68;1.95;;;;;;;20.95;54.55;101296.19;4947316;28;120047;-81
2022/07/23 08:05:12;;;;;;;6.35;1.80;;;;;;;20.99;54.14;101293.13;4944060;28;122667;-80
2022/07/23 08:07:39;;;;;;;5.13;1.70;;;;;;;21.02;53.89;101284.50;4945941;28;120437;-80
2022/07/23 08:10:08;;;;;;;6.03;1.90;;;;;;;21.00;53.49;101281.47;4943489;28;120253;-80
2022/07/23 08:12:39;;;;;;;8.35;1.98;;;;;;;21.04;53.33;101290.31;4944024;28;120407;-80
2022/07/23 08:15:06;;;;;;;8.60;2.10;;;;;;;21.01;53.66;101287.78;4927736;28;122042;-80
2022/07/23 08:17:32;;;;;;;5.87;1.80;;;;;;;20.99;53.38;101295.91;4927049;28;125115;-81
2022/07/23 08:19:57;;;;;;;7.93;2.10;;;;;;;20.92;53.25;101288.81;4945497;28;120008;-81
2022/07/23 08:22:23;;;;;;;5.88;1.80;;;;;;;20.98;53.64;101302.75;4944364;28;123340;-80
2022/07/23 08:24:48;;;;;;;7.20;2.00;;;;;;;21.01;53.10;101293.38;4949592;28;120239;-80
2022/07/23 08:27:14;;;;;;;5.83;1.70;;;;;;;21.07;53.92;101300.50;4940946;28;120193;-81
2022/07/23 08:29:39;;;;;;;7.07;1.90;;;;;;;21.14;53.92;101297.19;4942402;28;120182;-81
2022/07/23 08:32:05;;;;;;;7.10;2.10;;;;;;;21.23;53.44;101296.13;4927665;28;120482;-81
2022/07/23 08:34:31;;;;;;;9.98;2.40;;;;;;;21.27;53.03;101282.72;4944118;28;120519;-81
2022/07/23 08:36:56;;;;;;;7.00;1.95;;;;;;;21.43;53.63;101292.31;4942310;28;120758;-81
2022/07/23 08:39:24;;;;;;;9.60;1.90;;;;;;;21.56;52.98;101289.00;4944531;28;120348;-81
2022/07/23 08:41:50;;;;;;;6.90;2.00;;;;;;;21.67;52.62;101294.53;4945083;28;120113;-81
2022/07/23 08:44:16;;;;;;;6.78;2.00;;;;;;;21.78;52.32;101304.91;4945931;28;121497;-81
2022/07/23 08:46:44;;;;;;;6.45;2.03;;;;;;;21.75;51.85;101298.31;4926870;28;120356;-81
2022/07/23 08:49:10;;;;;;;8.25;2.00;;;;;;;21.68;51.72;101293.25;4926534;28;122589;-83
2022/07/23 08:51:35;;;;;;;8.90;2.10;;;;;;;21.60;50.95;101311.81;4926059;28;120805;-79
2022/07/23 08:54:01;;;;;;;7.40;2.40;;;;;;;21.51;52.53;101312.09;4944161;28;120105;-79
2022/07/23 08:56:29;;;;;;;7.97;2.20;;;;;;;21.41;51.74;101315.16;4942155;28;120639;-79
2022/07/23 08:58:55;;;;;;;7.03;1.90;;;;;;;21.31;52.34;101321.53;4928340;28;120557;-80
2022/07/23 09:01:21;;;;;;;9.50;2.10;;;;;;;21.22;53.34;101325.31;4926700;28;121759;-81
2022/07/23 09:03:46;;;;;;;7.77;2.00;;;;;;;21.18;53.99;101335.97;4944023;28;121085;-81
2022/07/23 09:06:12;;;;;;;7.07;1.90;;;;;;;21.18;53.56;101324.06;4948334;28;121337;-80
2022/07/23 09:08:42;;;;;;;8.00;2.17;;;;;;;21.15;51.67;101337.00;4944310;28;120411;-80
2022/07/23 09:11:10;;;;;;;6.53;1.88;;;;;;;21.16;52.28;101335.72;4942210;28;120131;-80
2022/07/23 09:13:39;;;;;;;8.33;2.23;;;;;;;21.18;52.03;101332.41;4941980;28;120496;-80
2022/07/23 09:16:07;;;;;;;5.93;1.80;;;;;;;21.21;51.39;101339.75;4942411;28;121511;-80
2022/07/23 09:18:39;;;;;;;5.70;1.80;;;;;;;21.18;51.78;101338.75;4941977;28;120510;-80
2022/07/23 09:21:17;;;;;;;5.13;1.80;;;;;;;21.17;52.84;101342.81;4927313;28;120328;-80
2022/07/23 09:24:04;;;;;;;3.88;1.33;;;;;;;21.18;52.42;101341.53;4941734;28;122221;-79
2022/07/23 09:26:40;;;;;;;7.00;1.67;;;;;;;21.17;52.55;101345.59;4924141;28;120364;-80
2022/07/23 09:29:12;;;;;;;4.88;1.52;;;;;;;21.22;51.70;101349.66;4945341;28;120673;-81
2022/07/23 09:31:46;;;;;;;4.00;1.43;;;;;;;21.18;51.27;101352.72;4943403;28;121066;-79
2022/07/23 09:34:26;;;;;;;7.53;1.80;;;;;;;21.15;52.66;101343.31;4941964;28;120002;-80
2022/07/23 09:36:54;;;;;;;6.90;1.70;;;;;;;21.21;52.15;101351.69;4944400;28;121047;-82
2022/07/23 09:39:32;;;;;;;7.75;1.77;;;;;;;21.26;51.83;101359.31;4928283;28;119889;-81
2022/07/23 09:42:12;;;;;;;5.68;1.58;;;;;;;21.33;52.82;101358.06;4929059;28;122391;-80
2022/07/23 09:44:42;;;;;;;7.10;1.67;;;;;;;21.45;51.95;101357.53;4945786;28;120262;-81
2022/07/23 09:47:07;;;;;;;6.88;1.75;;;;;;;21.51;51.78;101351.16;4939685;28;119868;-81
2022/07/23 09:49:33;;;;;;;5.82;1.63;;;;;;;21.60;50.25;101353.69;4946763;28;120242;-81
2022/07/23 09:52:01;;;;;;;5.53;1.58;;;;;;;21.64;50.94;101354.19;4949667;28;121419;-80
2022/07/23 09:54:35;;;;;;;6.33;1.80;;;;;;;21.73;51.09;101359.47;4946050;28;120184;-80
2022/07/23 09:57:07;;;;;;;4.95;1.70;;;;;;;21.84;50.23;101356.66;4945011;28;120178;-80
2022/07/23 09:59:36;;;;;;;5.50;1.80;;;;;;;21.87;50.04;101355.63;4942230;28;120212;-80
2022/07/23 10:02:05;;;;;;;6.43;1.83;;;;;;;21.94;50.17;101357.88;4946168;28;120005;-81
2022/07/23 10:04:36;;;;;;;5.65;1.85;;;;;;;21.95;49.97;101355.84;4945747;28;121503;-81
2022/07/23 10:07:13;;;;;;;5.43;1.77;;;;;;;21.99;49.87;101356.34;4927080;28;119896;-79
2022/07/23 10:09:59;;;;;;;6.22;1.70;;;;;;;21.99;50.30;101350.75;4946786;28;119939;-80
2022/07/23 10:15:18;;;;;;;5.07;1.48;;;;;;;22.14;49.75;101356.81;4948871;28;120740;-81
2022/07/23 10:17:43;;;;;;;5.57;1.50;;;;;;;22.20;49.27;101354.00;4912003;28;123781;-81
2022/07/23 10:20:09;;;;;;;6.83;1.83;;;;;;;22.21;49.18;101361.09;4946227;28;120387;-81
2022/07/23 10:22:38;;;;;;;6.30;1.57;;;;;;;22.16;49.17;101359.88;4945877;28;120452;-81
2022/07/23 10:25:07;;;;;;;5.65;1.42;;;;;;;22.11;49.69;101362.69;4927841;28;120532;-79
2022/07/23 10:27:47;;;;;;;5.87;1.67;;;;;;;21.99;50.29;101365.47;4928159;28;121941;-80
2022/07/23 10:30:41;;;;;;;5.60;1.50;;;;;;;21.99;50.22;101367.53;4960733;28;120964;-80
2022/07/23 10:33:29;;;;;;;6.57;1.70;;;;;;;22.00;50.77;101380.22;4945732;28;121841;-81
2022/07/23 10:36:13;;;;;;;6.05;1.77;;;;;;;21.93;49.29;101380.75;4944760;28;120202;-80
2022/07/23 10:39:05;;;;;;;6.57;1.50;;;;;;;21.87;49.57;101377.97;4949334;28;119880;-81
2022/07/23 10:41:41;;;;;;;4.00;1.48;;;;;;;21.81;49.31;101379.28;4945645;28;120016;-80
2022/07/23 10:44:13;;;;;;;6.33;1.57;;;;;;;21.70;49.93;101366.09;4945402;28;120612;-80
2022/07/23 10:47:19;;;;;;;5.50;1.70;;;;;;;21.82;49.99;101387.16;4945707;28;120914;-80
2022/07/23 10:49:45;;;;;;;6.43;1.70;;;;;;;21.87;50.40;101388.41;4945904;28;120241;-80
2022/07/23 10:52:13;;;;;;;5.73;1.60;;;;;;;21.92;49.90;101385.56;4946053;28;121180;-80
2022/07/23 10:54:43;;;;;;;6.75;2.00;;;;;;;22.01;49.93;101388.09;4946145;28;120397;-80
2022/07/23 10:57:11;;;;;;;6.35;1.70;;;;;;;22.14;50.69;101381.97;4927453;28;119845;-80
2022/07/23 11:00:13;;;;;;;4.85;1.60;;;;;;;22.38;48.91;101386.94;4928392;28;120371;-80
2022/07/23 11:02:41;;;;;;;5.30;1.63;;;;;;;22.57;50.19;101392.69;4945971;28;120412;-80
2022/07/23 11:05:12;;;;;;;4.57;1.67;;;;;;;22.76;48.69;101387.25;4945629;28;122193;-80
2022/07/23 11:08:03;;;;;;;4.10;1.50;;;;;;;22.88;48.62;101374.72;4946390;28;120211;-80
2022/07/23 11:10:37;;;;;;;4.40;1.40;;;;;;;22.95;46.22;101382.56;4945740;28;120019;-79
2022/07/23 11:13:32;;;;;;;4.50;1.65;;;;;;;22.92;46.52;101384.31;4945290;28;120395;-79
2022/07/23 11:16:01;;;;;;;4.32;1.60;;;;;;;22.89;46.13;101390.97;4926240;28;120384;-79
2022/07/23 11:18:39;;;;;;;3.22;1.30;;;;;;;22.81;46.56;101392.81;4914989;28;119850;-79
2022/07/23 11:21:36;;;;;;;4.30;1.45;;;;;;;22.72;46.43;101386.75;4946967;28;120280;-80
2022/07/23 11:24:14;;;;;;;4.17;1.50;;;;;;;22.67;47.43;101391.09;4916955;28;121759;-80